sensor_id;sensor_type;location;lat;lon;timestamp;pressure;altitude;pressure_sealevel;temperature;humidity
36354;BME280;22383;51.114;13.666;2023-03-20T00:02:20;68160.81;;;8.76;100.00
36354;BME280;22383;51.114;13.666;2023-03-20T00:04:48;68151.03;;;8.72;100.00
36354;BME280;22383;51.114;13.666;2023-03-20T00:07:16;68155.16;;;8.71;100.00
36354;BME280;22383;51.114;13.666;2023-03-20T00:09:43;68152.91;;;8.69;100.00
36354;BME280;22383;51.114;13.666;2023-03-20T00:12:17;68144.41;;;8.61;100.00
36354;BME280;22383;51.114;13.666;2023-03-20T00:14:48;68138.38;;;8.58;100.00
36354;BME280;22383;51.114;13.666;2023-03-20T00:17:18;68146.69;;;8.63;100.00
36354;BME280;22383;51.114;13.666;2023-03-20T00:19:46;68143.47;;;8.63;100.00
36354;BME280;22383;51.114;13.666;2023-03-20T00:22:14;68145.38;;;8.67;100.00
36354;BME280;22383;51.114;13.666;2023-03-20T00:24:42;68144.97;;;8.62;100.00
36354;BME280;22383;51.114;13.666;2023-03-20T00:27:15;68142.91;;;8.62;100.00
36354;BME280;22383;51.114;13.666;2023-03-20T00:29:43;68147.81;;;8.64;100.00
36354;BME280;22383;51.114;13.666;2023-03-20T00:32:12;68144.41;;;8.61;100.00
36354;BME280;22383;51.114;13.666;2023-03-20T00:34:40;68131.78;;;8.55;100.00
36354;BME280;22383;51.114;13.666;2023-03-20T00:37:09;68140.63;;;8.60;100.00
36354;BME280;22383;51.114;13.666;2023-03-20T00:39:39;68144.59;;;8.64;100.00
36354;BME280;22383;51.114;13.666;2023-03-20T00:42:19;68143.84;;;8.61;100.00
36354;BME280;22383;51.114;13.666;2023-03-20T00:44:51;68136.88;;;8.59;100.00
36354;BME280;22383;51.114;13.666;2023-03-20T00:47:23;68134.59;;;8.57;100.00
36354;BME280;22383;51.114;13.666;2023-03-20T00:49:53;68144.97;;;8.62;100.00
36354;BME280;22383;51.114;13.666;2023-03-20T00:52:22;68144.41;;;8.61;100.00
36354;BME280;22383;51.114;13.666;2023-03-20T00:54:51;68141.97;;;8.64;100.00
36354;BME280;22383;51.114;13.666;2023-03-20T00:57:25;68146.31;;;8.65;100.00
36354;BME280;22383;51.114;13.666;2023-03-20T01:00:00;68147.25;;;8.64;100.00
36354;BME280;22383;51.114;13.666;2023-03-20T01:02:32;68144.03;;;8.63;100.00
36354;BME280;22383;51.114;13.666;2023-03-20T01:05:03;68137.81;;;8.58;100.00
36354;BME280;22383;51.114;13.666;2023-03-20T01:07:32;68141.78;;;8.61;100.00
36354;BME280;22383;51.114;13.666;2023-03-20T01:10:03;68141.22;;;8.61;100.00
36354;BME280;22383;51.114;13.666;2023-03-20T01:12:31;68142.16;;;8.59;100.00
36354;BME280;22383;51.114;13.666;2023-03-20T01:14:59;68142.34;;;8.62;100.00
36354;BME280;22383;51.114;13.666;2023-03-20T01:17:27;68145.91;;;8.60;100.00
36354;BME280;22383;51.114;13.666;2023-03-20T01:19:56;68148.19;;;8.62;100.00
36354;BME280;22383;51.114;13.666;2023-03-20T01:22:23;68138.94;;;8.59;100.00
36354;BME280;22383;51.114;13.666;2023-03-20T01:24:51;68131.59;;;8.52;100.00
36354;BME280;22383;51.114;13.666;2023-03-20T01:27:21;68128.56;;;8.47;100.00
36354;BME280;22383;51.114;13.666;2023-03-20T01:29:49;68123.31;;;8.47;100.00
36354;BME280;22383;51.114;13.666;2023-03-20T01:32:18;68124.78;;;8.46;100.00
36354;BME280;22383;51.114;13.666;2023-03-20T01:34:53;68129.31;;;8.50;100.00
36354;BME280;22383;51.114;13.666;2023-03-20T01:37:26;68128.75;;;8.49;100.00
36354;BME280;22383;51.114;13.666;2023-03-20T01:39:59;68130.47;;;8.51;100.00
36354;BME280;22383;51.114;13.666;2023-03-20T01:42:27;68129.91;;;8.50;100.00
36354;BME280;22383;51.114;13.666;2023-03-20T01:44:55;68138.00;;;8.53;100.00
36354;BME280;22383;51.114;13.666;2023-03-20T01:47:24;68130.25;;;8.48;100.00
36354;BME280;22383;51.114;13.666;2023-03-20T01:50:32;68131.41;;;8.49;100.00
36354;BME280;22383;51.114;13.666;2023-03-20T01:53:16;68127.63;;;8.48;100.00
36354;BME280;22383;51.114;13.666;2023-03-20T01:55:52;68129.91;;;8.50;100.00
36354;BME280;22383;51.114;13.666;2023-03-20T01:58:28;68130.84;;;8.49;100.00
36354;BME280;22383;51.114;13.666;2023-03-20T02:00:58;68126.13;;;8.49;100.00
36354;BME280;22383;51.114;13.666;2023-03-20T02:03:26;68128.19;;;8.49;100.00
36354;BME280;22383;51.114;13.666;2023-03-20T02:06:13;68126.28;;;8.45;100.00
36354;BME280;22383;51.114;13.666;2023-03-20T02:08:58;68122.72;;;8.46;100.00
36354;BME280;22383;51.114;13.666;2023-03-20T02:11:30;68126.50;;;8.47;100.00
36354;BME280;22383;51.114;13.666;2023-03-20T02:14:00;68130.25;;;8.48;100.00
36354;BME280;22383;51.114;13.666;2023-03-20T02:16:35;68130.06;;;8.46;100.00
36354;BME280;22383;51.114;13.666;2023-03-20T02:19:16;68125.34;;;8.46;100.00
36354;BME280;22383;51.114;13.666;2023-03-20T02:27:38;68145.38;;;8.67;100.00
36354;BME280;22383;51.114;13.666;2023-03-20T02:30:21;68140.09;;;8.60;100.00
36354;BME280;22383;51.114;13.666;2023-03-20T02:38:56;68142.34;;;8.62;100.00
36354;BME280;22383;51.114;13.666;2023-03-20T02:55:40;68141.94;;;8.57;100.00
36354;BME280;22383;51.114;13.666;2023-03-20T02:58:27;68141.78;;;8.61;100.00
36354;BME280;22383;51.114;13.666;2023-03-20T03:03:35;68140.47;;;8.58;100.00
36354;BME280;22383;51.114;13.666;2023-03-20T03:06:12;68137.06;;;8.55;100.00
36354;BME280;22383;51.114;13.666;2023-03-20T03:08:48;68137.25;;;8.57;100.00
36354;BME280;22383;51.114;13.666;2023-03-20T03:11:16;68139.69;;;8.55;100.00
36354;BME280;22383;51.114;13.666;2023-03-20T03:13:48;68134.59;;;8.57;100.00
36354;BME280;22383;51.114;13.666;2023-03-20T03:16:26;68138.59;;;8.61;100.00
36354;BME280;22383;51.114;13.666;2023-03-20T03:19:22;68137.81;;;8.58;100.00
36354;BME280;22383;51.114;13.666;2023-03-20T03:21:52;68132.72;;;8.53;100.00
36354;BME280;22383;51.114;13.666;2023-03-20T03:29:47;68131.78;;;8.55;100.00
36354;BME280;22383;51.114;13.666;2023-03-20T03:32:34;68130.47;;;8.51;100.00
36354;BME280;22383;51.114;13.666;2023-03-20T03:35:05;68136.09;;;8.49;100.00
36354;BME280;22383;51.114;13.666;2023-03-20T03:37:40;68129.91;;;8.50;100.00
36354;BME280;22383;51.114;13.666;2023-03-20T03:40:19;68133.66;;;8.51;100.00
36354;BME280;22383;51.114;13.666;2023-03-20T03:42:56;68137.06;;;8.55;100.00
36354;BME280;22383;51.114;13.666;2023-03-20T03:48:35;68138.00;;;8.60;100.00
36354;BME280;22383;51.114;13.666;2023-03-20T03:51:13;68135.19;;;8.58;100.00
36354;BME280;22383;51.114;13.666;2023-03-20T03:54:37;68137.06;;;8.55;100.00
36354;BME280;22383;51.114;13.666;2023-03-20T03:57:33;68131.59;;;8.52;100.00
36354;BME280;22383;51.114;13.666;2023-03-20T04:00:08;68128.19;;;8.49;100.00
36354;BME280;22383;51.114;13.666;2023-03-20T04:02:42;68127.06;;;8.48;100.00
36354;BME280;22383;51.114;13.666;2023-03-20T04:05:12;68124.25;;;8.45;100.00
36354;BME280;22383;51.114;13.666;2023-03-20T04:07:45;68128.00;;;8.46;100.00
36354;BME280;22383;51.114;13.666;2023-03-20T04:10:14;68121.97;;;8.43;100.00
36354;BME280;22383;51.114;13.666;2023-03-20T04:12:43;68120.63;;;8.40;100.00
36354;BME280;22383;51.114;13.666;2023-03-20T04:15:13;68118.94;;;8.38;100.00
36354;BME280;22383;51.114;13.666;2023-03-20T04:17:43;68119.50;;;8.39;100.00
36354;BME280;22383;51.114;13.666;2023-03-20T04:20:13;68124.25;;;8.45;100.00
36354;BME280;22383;51.114;13.666;2023-03-20T04:22:45;68123.09;;;8.44;100.00
36354;BME280;22383;51.114;13.666;2023-03-20T04:25:22;68133.66;;;8.51;100.00
36354;BME280;22383;51.114;13.666;2023-03-20T04:27:53;68127.63;;;8.48;100.00
36354;BME280;22383;51.114;13.666;2023-03-20T04:30:34;68118.19;;;8.42;100.00
36354;BME280;22383;51.114;13.666;2023-03-20T04:33:08;68116.09;;;8.36;100.00
36354;BME280;22383;51.114;13.666;2023-03-20T04:35:55;68118.72;;;8.36;100.00
36354;BME280;22383;51.114;13.666;2023-03-20T04:38:23;68111.19;;;8.33;100.00
36354;BME280;22383;51.114;13.666;2023-03-20T04:40:52;68111.94;;;8.29;100.00
36354;BME280;22383;51.114;13.666;2023-03-20T04:43:20;68105.91;;;8.26;100.00
36354;BME280;22383;51.114;13.666;2023-03-20T04:45:48;68101.75;;;8.27;100.00
36354;BME280;22383;51.114;13.666;2023-03-20T04:48:15;68104.03;;;8.29;100.00
36354;BME280;22383;51.114;13.666;2023-03-20T04:50:44;68095.53;;;8.22;100.00
36354;BME280;22383;51.114;13.666;2023-03-20T04:53:17;68101.00;;;8.24;100.00
36354;BME280;22383;51.114;13.666;2023-03-20T04:55:49;68109.31;;;8.29;100.00
36354;BME280;22383;51.114;13.666;2023-03-20T04:58:18;68109.50;;;8.32;100.00
36354;BME280;22383;51.114;13.666;2023-03-20T05:00:45;68106.09;;;8.29;100.00
36354;BME280;22383;51.114;13.666;2023-03-20T05:03:13;68103.66;;;8.24;100.00
36354;BME280;22383;51.114;13.666;2023-03-20T05:05:43;68106.47;;;8.27;100.00
36354;BME280;22383;51.114;13.666;2023-03-20T05:08:11;68099.31;;;8.23;100.00
36354;BME280;22383;51.114;13.666;2023-03-20T05:10:40;68094.78;;;8.19;100.00
36354;BME280;22383;51.114;13.666;2023-03-20T05:13:26;68092.88;;;8.14;100.00
36354;BME280;22383;51.114;13.666;2023-03-20T05:16:17;68096.28;;;8.18;100.00
36354;BME280;22383;51.114;13.666;2023-03-20T05:18:57;68093.28;;;8.20;100.00
36354;BME280;22383;51.114;13.666;2023-03-20T05:21:43;68092.72;;;8.19;100.00
36354;BME280;22383;51.114;13.666;2023-03-20T05:24:29;68094.78;;;8.19;100.00
36354;BME280;22383;51.114;13.666;2023-03-20T05:27:15;68100.25;;;8.21;100.00
36354;BME280;22383;51.114;13.666;2023-03-20T05:30:12;68105.34;;;8.26;100.00
36354;BME280;22383;51.114;13.666;2023-03-20T05:32:56;68104.78;;;8.25;100.00
36354;BME280;22383;51.114;13.666;2023-03-20T05:35:26;68107.97;;;8.26;100.00
36354;BME280;22383;51.114;13.666;2023-03-20T05:38:20;68104.78;;;8.25;100.00
36354;BME280;22383;51.114;13.666;2023-03-20T05:41:02;68102.13;;;8.25;100.00
36354;BME280;22383;51.114;13.666;2023-03-20T05:43:41;68095.16;;;8.24;100.00
36354;BME280;22383;51.114;13.666;2023-03-20T05:46:28;68103.84;;;8.27;100.00
36354;BME280;22383;51.114;13.666;2023-03-20T05:49:19;68102.72;;;8.26;100.00
36354;BME280;22383;51.114;13.666;2023-03-20T05:52:05;68099.88;;;8.23;100.00
36354;BME280;22383;51.114;13.666;2023-03-20T05:54:51;68104.78;;;8.25;100.00
36354;BME280;22383;51.114;13.666;2023-03-20T05:57:37;68109.31;;;8.29;100.00
36354;BME280;22383;51.114;13.666;2023-03-20T06:00:22;68109.31;;;8.29;100.00
36354;BME280;22383;51.114;13.666;2023-03-20T06:03:09;68104.38;;;8.27;100.00
36354;BME280;22383;51.114;13.666;2023-03-20T06:05:59;68104.22;;;8.25;100.00
36354;BME280;22383;51.114;13.666;2023-03-20T06:08:28;68102.13;;;8.25;100.00
36354;BME280;22383;51.114;13.666;2023-03-20T06:10:58;68106.09;;;8.29;100.00
36354;BME280;22383;51.114;13.666;2023-03-20T06:13:27;68111.56;;;8.31;100.00
36354;BME280;22383;51.114;13.666;2023-03-20T06:15:55;68110.81;;;8.36;100.00
36354;BME280;22383;51.114;13.666;2023-03-20T06:18:23;68119.50;;;8.39;100.00
36354;BME280;22383;51.114;13.666;2023-03-20T06:20:55;68121.97;;;8.43;100.00
36354;BME280;22383;51.114;13.666;2023-03-20T06:23:25;68126.50;;;8.47;100.00
36354;BME280;22383;51.114;13.666;2023-03-20T06:25:53;68122.72;;;8.46;100.00
36354;BME280;22383;51.114;13.666;2023-03-20T06:28:21;68129.91;;;8.50;100.00
36354;BME280;22383;51.114;13.666;2023-03-20T06:30:56;68140.09;;;8.60;100.00
36354;BME280;22383;51.114;13.666;2023-03-20T06:33:24;68150.63;;;8.67;100.00
36354;BME280;22383;51.114;13.666;2023-03-20T06:35:58;68146.31;;;8.65;100.00
36354;BME280;22383;51.114;13.666;2023-03-20T06:38:28;68148.00;;;8.67;100.00
36354;BME280;22383;51.114;13.666;2023-03-20T06:40:57;68164.22;;;8.79;100.00
36354;BME280;22383;51.114;13.666;2023-03-20T06:43:25;68158.38;;;8.79;100.00
36354;BME280;22383;51.114;13.666;2023-03-20T06:45:52;68161.41;;;8.77;100.00
36354;BME280;22383;51.114;13.666;2023-03-20T06:48:29;68160.25;;;8.76;100.00
36354;BME280;22383;51.114;13.666;2023-03-20T06:50:56;68159.13;;;8.75;100.00
36354;BME280;22383;51.114;13.666;2023-03-20T06:53:30;68172.53;;;8.92;100.00
36354;BME280;22383;51.114;13.666;2023-03-20T06:56:04;68192.16;;;9.07;100.00
36354;BME280;22383;51.114;13.666;2023-03-20T06:58:32;68199.91;;;9.12;100.00
36354;BME280;22383;51.114;13.666;2023-03-20T07:00:59;68206.31;;;9.20;100.00
36354;BME280;22383;51.114;13.666;2023-03-20T07:03:27;68208.41;;;9.19;100.00
36354;BME280;22383;51.114;13.666;2023-03-20T07:05:57;68211.97;;;9.25;100.00
36354;BME280;22383;51.114;13.666;2023-03-20T07:08:24;68224.81;;;9.34;100.00
36354;BME280;22383;51.114;13.666;2023-03-20T07:10:52;68230.13;;;9.41;100.00
36354;BME280;22383;51.114;13.666;2023-03-20T07:13:19;68235.22;;;9.46;100.00
36354;BME280;22383;51.114;13.666;2023-03-20T07:15:47;68244.66;;;9.52;100.00
36354;BME280;22383;51.114;13.666;2023-03-20T07:18:34;68243.91;;;9.56;100.00
36354;BME280;22383;51.114;13.666;2023-03-20T07:21:04;68250.50;;;9.60;100.00
36354;BME280;22383;51.114;13.666;2023-03-20T07:23:33;68274.09;;;9.79;100.00
36354;BME280;22383;51.114;13.666;2023-03-20T07:26:02;68313.97;;;10.17;100.00
36354;BME280;22383;51.114;13.666;2023-03-20T07:28:33;68340.06;;;10.41;100.00
36354;BME280;22383;51.114;13.666;2023-03-20T07:31:24;68359.31;;;10.58;100.00
36354;BME280;22383;51.114;13.666;2023-03-20T07:34:14;68371.81;;;10.70;100.00
36354;BME280;22383;51.114;13.666;2023-03-20T07:36:43;68343.06;;;10.46;100.00
36354;BME280;22383;51.114;13.666;2023-03-20T07:39:16;68333.06;;;10.32;100.00
36354;BME280;22383;51.114;13.666;2023-03-20T07:41:52;68336.84;;;10.33;100.00
36354;BME280;22383;51.114;13.666;2023-03-20T07:44:35;68316.63;;;10.17;100.00
36354;BME280;22383;51.114;13.666;2023-03-20T07:47:08;68295.47;;;10.03;100.00
36354;BME280;22383;51.114;13.666;2023-03-20T07:49:35;68303.38;;;10.10;100.00
36354;BME280;22383;51.114;13.666;2023-03-20T07:52:03;68298.09;;;10.03;100.00
36354;BME280;22383;51.114;13.666;2023-03-20T07:54:35;68298.09;;;10.03;100.00
36354;BME280;22383;51.114;13.666;2023-03-20T07:57:03;68296.78;;;9.99;100.00
36354;BME280;22383;51.114;13.666;2023-03-20T07:59:34;68303.19;;;10.08;100.00
36354;BME280;22383;51.114;13.666;2023-03-20T08:02:02;68285.25;;;9.94;100.00
36354;BME280;22383;51.114;13.666;2023-03-20T08:04:30;68296.97;;;10.02;100.00
36354;BME280;22383;51.114;13.666;2023-03-20T08:06:57;68289.59;;;9.95;100.00
36354;BME280;22383;51.114;13.666;2023-03-20T08:09:26;68273.16;;;9.80;100.00
36354;BME280;22383;51.114;13.666;2023-03-20T08:11:53;68262.22;;;9.68;100.00
36354;BME280;22383;51.114;13.666;2023-03-20T08:14:24;68256.34;;;9.68;100.00
36354;BME280;22383;51.114;13.666;2023-03-20T08:16:51;68266.56;;;9.77;100.00
36354;BME280;22383;51.114;13.666;2023-03-20T08:19:38;68253.34;;;9.62;100.00
36354;BME280;22383;51.114;13.666;2023-03-20T08:22:06;68261.84;;;9.70;100.00
36354;BME280;22383;51.114;13.666;2023-03-20T08:24:34;68273.16;;;9.80;100.00
36354;BME280;22383;51.114;13.666;2023-03-20T08:27:03;68391.84;;;10.90;100.00
36354;BME280;22383;51.114;13.666;2023-03-20T08:29:30;68439.66;;;11.29;100.00
36354;BME280;22383;51.114;13.666;2023-03-20T08:31:58;68463.88;;;11.56;100.00
36354;BME280;22383;51.114;13.666;2023-03-20T08:34:26;68483.19;;;11.73;100.00
36354;BME280;22383;51.114;13.666;2023-03-20T08:36:54;68477.13;;;11.63;100.00
36354;BME280;22383;51.114;13.666;2023-03-20T08:39:21;68458.22;;;11.50;100.00
36354;BME280;22383;51.114;13.666;2023-03-20T08:41:49;68518.56;;;12.00;100.00
36354;BME280;22383;51.114;13.666;2023-03-20T08:44:17;68522.16;;;12.06;100.00
36354;BME280;22383;51.114;13.666;2023-03-20T08:46:44;68551.31;;;12.35;100.00
36354;BME280;22383;51.114;13.666;2023-03-20T08:49:14;68500.75;;;11.89;100.00
36354;BME280;22383;51.114;13.666;2023-03-20T08:51:42;68503.63;;;11.91;100.00
36354;BME280;22383;51.114;13.666;2023-03-20T08:54:09;68461.41;;;11.51;100.00
36354;BME280;22383;51.114;13.666;2023-03-20T08:56:37;68424.38;;;11.15;100.00
36354;BME280;22383;51.114;13.666;2023-03-20T08:59:05;68372.38;;;10.70;100.00
36354;BME280;22383;51.114;13.666;2023-03-20T09:01:32;68343.47;;;10.44;100.00
36354;BME280;22383;51.114;13.666;2023-03-20T09:04:15;68334.38;;;10.36;100.00
36354;BME280;22383;51.114;13.666;2023-03-20T09:06:43;68329.84;;;10.32;100.00
36354;BME280;22383;51.114;13.666;2023-03-20T09:09:17;68344.41;;;10.43;100.00
36354;BME280;22383;51.114;13.666;2023-03-20T09:11:46;68349.88;;;10.52;100.00
36354;BME280;22383;51.114;13.666;2023-03-20T09:14:14;68347.25;;;10.45;100.00
36354;BME280;22383;51.114;13.666;2023-03-20T09:16:42;68341.38;;;10.45;100.00
36354;BME280;22383;51.114;13.666;2023-03-20T09:19:09;68332.13;;;10.34;100.00
36354;BME280;22383;51.114;13.666;2023-03-20T09:21:37;68331.34;;;10.31;100.00
36354;BME280;22383;51.114;13.666;2023-03-20T09:24:05;68340.81;;;10.44;100.00
36354;BME280;22383;51.114;13.666;2023-03-20T09:26:33;68349.69;;;10.50;100.00
36354;BME280;22383;51.114;13.666;2023-03-20T09:29:01;68357.44;;;10.54;100.00
36354;BME280;22383;51.114;13.666;2023-03-20T09:31:28;68350.06;;;10.48;100.00
36354;BME280;22383;51.114;13.666;2023-03-20T09:33:56;68346.31;;;10.47;100.00
36354;BME280;22383;51.114;13.666;2023-03-20T09:36:23;68332.88;;;10.37;100.00
36354;BME280;22383;51.114;13.666;2023-03-20T09:38:50;68328.69;;;10.31;100.00
36354;BME280;22383;51.114;13.666;2023-03-20T09:41:20;68331.94;;;10.31;100.00
36354;BME280;22383;51.114;13.666;2023-03-20T09:44:09;68329.47;;;10.34;100.00
36354;BME280;22383;51.114;13.666;2023-03-20T09:46:55;68307.91;;;10.14;100.00
36354;BME280;22383;51.114;13.666;2023-03-20T09:52:45;68350.28;;;10.50;100.00
36354;BME280;22383;51.114;13.666;2023-03-20T09:55:22;68356.50;;;10.63;100.00
36354;BME280;22383;51.114;13.666;2023-03-20T09:57:56;68336.28;;;10.40;100.00
36354;BME280;22383;51.114;13.666;2023-03-20T10:00:27;68361.41;;;10.58;100.00
36354;BME280;22383;51.114;13.666;2023-03-20T10:03:03;68396.19;;;10.92;100.00
36354;BME280;22383;51.114;13.666;2023-03-20T10:05:37;68396.56;;;10.90;100.00
36354;BME280;22383;51.114;13.666;2023-03-20T10:08:09;68371.22;;;10.69;100.00
36354;BME280;22383;51.114;13.666;2023-03-20T10:18:48;68379.56;;;10.74;100.00
36354;BME280;22383;51.114;13.666;2023-03-20T10:21:25;68370.09;;;10.68;100.00
36354;BME280;22383;51.114;13.666;2023-03-20T10:24:00;68387.69;;;10.84;100.00
36354;BME280;22383;51.114;13.666;2023-03-20T10:26:33;68371.81;;;10.70;100.00
36354;BME280;22383;51.114;13.666;2023-03-20T10:29:15;68375.03;;;10.70;100.00
36354;BME280;22383;51.114;13.666;2023-03-20T10:31:53;68354.81;;;10.54;100.00
36354;BME280;22383;51.114;13.666;2023-03-20T10:37:38;68327.00;;;10.29;100.00
36354;BME280;22383;51.114;13.666;2023-03-20T10:40:36;68324.72;;;10.27;100.00
36354;BME280;22383;51.114;13.666;2023-03-20T10:43:14;68320.97;;;10.26;100.00
36354;BME280;22383;51.114;13.666;2023-03-20T10:45:47;68321.72;;;10.22;100.00
36354;BME280;22383;51.114;13.666;2023-03-20T10:48:31;68331.19;;;10.35;100.00
36354;BME280;22383;51.114;13.666;2023-03-20T10:51:01;68330.06;;;10.34;100.00
36354;BME280;22383;51.114;13.666;2023-03-20T10:53:39;68324.00;;;10.31;100.00
36354;BME280;22383;51.114;13.666;2023-03-20T10:56:12;68324.72;;;10.27;100.00
36354;BME280;22383;51.114;13.666;2023-03-20T10:58:46;68319.63;;;10.22;100.00
36354;BME280;22383;51.114;13.666;2023-03-20T11:01:14;68300.94;;;10.06;100.00
36354;BME280;22383;51.114;13.666;2023-03-20T11:03:44;68295.06;;;10.05;100.00
36354;BME280;22383;51.114;13.666;2023-03-20T11:06:18;68301.88;;;10.04;100.00
36354;BME280;22383;51.114;13.666;2023-03-20T11:08:51;68289.41;;;9.93;100.00
36354;BME280;22383;51.114;13.666;2023-03-20T11:11:33;68269.00;;;9.74;100.00
36354;BME280;22383;51.114;13.666;2023-03-20T11:14:19;68248.41;;;9.60;100.00
36354;BME280;22383;51.114;13.666;2023-03-20T11:16:52;68249.75;;;9.57;100.00
36354;BME280;22383;51.114;13.666;2023-03-20T11:19:22;68267.31;;;9.73;100.00
36354;BME280;22383;51.114;13.666;2023-03-20T11:21:53;68268.06;;;9.76;100.00
36354;BME280;22383;51.114;13.666;2023-03-20T11:24:26;68278.84;;;9.86;100.00
36354;BME280;22383;51.114;13.666;2023-03-20T11:27:14;68303.19;;;10.08;100.00
36354;BME280;22383;51.114;13.666;2023-03-20T11:29:46;68325.47;;;10.23;100.00
36354;BME280;22383;51.114;13.666;2023-03-20T11:32:29;68355.34;;;10.55;100.00
36354;BME280;22383;51.114;13.666;2023-03-20T11:35:31;68394.28;;;10.95;100.00
36354;BME280;22383;51.114;13.666;2023-03-20T11:40:40;68431.53;;;11.26;100.00
36354;BME280;22383;51.114;13.666;2023-03-20T11:43:13;68468.78;;;11.58;100.00
36354;BME280;22383;51.114;13.666;2023-03-20T11:45:44;68470.31;;;11.57;100.00
36354;BME280;22383;51.114;13.666;2023-03-20T11:48:34;68453.47;;;11.44;100.00
36354;BME280;22383;51.114;13.666;2023-03-20T11:51:05;68424.00;;;11.17;100.00
36354;BME280;22383;51.114;13.666;2023-03-20T11:53:38;68406.22;;;10.98;100.00
36354;BME280;22383;51.114;13.666;2023-03-20T11:56:26;68406.97;;;11.02;100.00
36354;BME280;22383;51.114;13.666;2023-03-20T11:59:14;68397.50;;;10.95;100.00
36354;BME280;22383;51.114;13.666;2023-03-20T12:01:52;68383.72;;;10.81;100.00
36354;BME280;22383;51.114;13.666;2023-03-20T12:04:35;68379.75;;;10.77;100.00
36354;BME280;22383;51.114;13.666;2023-03-20T12:07:22;68399.22;;;10.97;100.00
36354;BME280;22383;51.114;13.666;2023-03-20T12:10:11;68437.00;;;11.29;100.00
36354;BME280;22383;51.114;13.666;2023-03-20T12:12:53;68450.81;;;11.44;100.00
36354;BME280;22383;51.114;13.666;2023-03-20T12:15:36;68420.00;;;11.13;100.00
36354;BME280;22383;51.114;13.666;2023-03-20T12:18:29;68398.66;;;10.96;100.00
36354;BME280;22383;51.114;13.666;2023-03-20T12:21:14;68381.63;;;10.81;100.00
36354;BME280;22383;51.114;13.666;2023-03-20T12:24:08;68400.72;;;10.96;100.00
36354;BME280;22383;51.114;13.666;2023-03-20T12:27:16;68398.47;;;10.94;100.00
36354;BME280;22383;51.114;13.666;2023-03-20T12:29:51;68387.13;;;10.84;100.00
36354;BME280;22383;51.114;13.666;2023-03-20T12:32:26;68374.84;;;10.75;100.00
36354;BME280;22383;51.114;13.666;2023-03-20T12:35:04;68376.34;;;10.74;100.00
36354;BME280;22383;51.114;13.666;2023-03-20T12:37:37;68372.94;;;10.71;100.00
36354;BME280;22383;51.114;13.666;2023-03-20T12:40:05;68366.69;;;10.65;100.00
36354;BME280;22383;51.114;13.666;2023-03-20T12:45:20;68367.25;;;10.66;100.00
36354;BME280;22383;51.114;13.666;2023-03-20T12:56:16;68391.66;;;10.88;100.00
36354;BME280;22383;51.114;13.666;2023-03-20T13:01:26;68437.78;;;11.32;100.00
36354;BME280;22383;51.114;13.666;2023-03-20T13:07:00;68442.91;;;11.29;100.00
36354;BME280;22383;51.114;13.666;2023-03-20T13:12:41;68425.88;;;11.21;100.00
36354;BME280;22383;51.114;13.666;2023-03-20T13:20:55;68455.56;;;11.50;100.00
36354;BME280;22383;51.114;13.666;2023-03-20T13:23:29;68467.28;;;11.59;100.00
36354;BME280;22383;51.114;13.666;2023-03-20T13:31:15;68442.69;;;11.34;100.00
36354;BME280;22383;51.114;13.666;2023-03-20T13:37:05;68410.56;;;11.07;100.00
36354;BME280;22383;51.114;13.666;2023-03-20T13:43:27;68403.75;;;11.01;100.00
36354;BME280;22383;51.114;13.666;2023-03-20T13:46:05;68397.31;;;10.93;100.00
36354;BME280;22383;51.114;13.666;2023-03-20T13:48:39;68396.38;;;10.94;100.00
36354;BME280;22383;51.114;13.666;2023-03-20T13:51:25;68397.31;;;10.93;100.00
36354;BME280;22383;51.114;13.666;2023-03-20T13:59:49;68384.28;;;10.81;100.00
36354;BME280;22383;51.114;13.666;2023-03-20T14:05:55;68383.91;;;10.83;100.00
36354;BME280;22383;51.114;13.666;2023-03-20T14:11:37;68357.25;;;10.59;100.00
36354;BME280;22383;51.114;13.666;2023-03-20T14:13:50;68344.59;;;10.45;100.00
36354;BME280;22383;51.114;13.666;2023-03-20T14:16:19;68334.59;;;10.38;100.00
36354;BME280;22383;51.114;13.666;2023-03-20T14:18:49;68323.59;;;10.26;100.00
36354;BME280;22383;51.114;13.666;2023-03-20T14:21:22;68310.38;;;10.12;100.00
36354;BME280;22383;51.114;13.666;2023-03-20T14:23:59;68303.19;;;10.08;100.00
36354;BME280;22383;51.114;13.666;2023-03-20T14:26:31;68316.63;;;10.17;100.00
36354;BME280;22383;51.114;13.666;2023-03-20T14:29:41;68308.28;;;10.12;100.00
36354;BME280;22383;51.114;13.666;2023-03-20T14:32:30;68290.53;;;9.94;100.00
36354;BME280;22383;51.114;13.666;2023-03-20T14:35:17;68274.28;;;9.81;100.00
36354;BME280;22383;51.114;13.666;2023-03-20T14:40:37;68278.25;;;9.85;100.00
36354;BME280;22383;51.114;13.666;2023-03-20T14:43:16;68257.50;;;9.69;100.00
36354;BME280;22383;51.114;13.666;2023-03-20T14:48:24;68251.44;;;9.58;100.00
36354;BME280;22383;51.114;13.666;2023-03-20T14:53:39;68241.44;;;9.52;100.00
36354;BME280;22383;51.114;13.666;2023-03-20T14:56:12;68239.16;;;9.50;100.00
36354;BME280;22383;51.114;13.666;2023-03-20T15:04:05;68220.28;;;9.30;100.00
36354;BME280;22383;51.114;13.666;2023-03-20T15:06:34;68211.81;;;9.22;100.00
36354;BME280;22383;51.114;13.666;2023-03-20T15:09:09;68203.88;;;9.15;100.00
36354;BME280;22383;51.114;13.666;2023-03-20T15:11:39;68200.09;;;9.14;100.00
36354;BME280;22383;51.114;13.666;2023-03-20T15:14:09;68187.28;;;9.05;100.00
36354;BME280;22383;51.114;13.666;2023-03-20T15:16:37;68172.91;;;8.89;100.00
36354;BME280;22383;51.114;13.666;2023-03-20T15:19:17;68169.50;;;8.86;100.00
36354;BME280;22383;51.114;13.666;2023-03-20T15:21:46;68168.94;;;8.86;100.00